createdAt,value
2019-02-17T00:00:03.321Z,18.03
2019-02-17T00:02:33.821Z,18.10
2019-02-17T00:05:04.801Z,17.60
2019-02-17T00:07:35.248Z,15.67
2019-02-17T00:10:06.225Z,17.00
2019-02-17T00:12:36.699Z,16.73
2019-02-17T00:15:07.600Z,18.93
2019-02-17T00:17:38.109Z,17.70
2019-02-17T00:20:08.490Z,18.13
2019-02-17T00:22:38.890Z,17.00
2019-02-17T00:25:09.404Z,16.73
2019-02-17T00:27:39.854Z,16.40
2019-02-17T00:30:11.743Z,18.53
2019-02-17T00:32:42.185Z,17.30
2019-02-17T00:35:12.577Z,17.77
2019-02-17T00:37:43.127Z,16.83
2019-02-17T00:40:13.637Z,16.67
2019-02-17T00:42:44.273Z,19.67
2019-02-17T00:45:14.643Z,18.60
2019-02-17T00:47:45.097Z,18.43
2019-02-17T00:50:15.536Z,16.93
2019-02-17T00:52:46.027Z,18.17
2019-02-17T00:55:16.497Z,19.27
2019-02-17T00:57:46.987Z,16.33
2019-02-17T01:00:17.681Z,16.87
2019-02-17T01:02:48.164Z,112.93
2019-02-17T01:05:20.397Z,80.63
2019-02-17T01:07:50.894Z,48.20
2019-02-17T01:10:21.278Z,16.07
2019-02-17T01:12:51.656Z,15.47
2019-02-17T01:15:22.153Z,14.77
2019-02-17T01:17:52.640Z,14.43
2019-02-17T01:20:22.935Z,15.03
2019-02-17T01:22:53.375Z,16.93
2019-02-17T01:25:23.791Z,17.03
2019-02-17T01:27:54.131Z,15.63
2019-02-17T01:30:24.604Z,15.13
2019-02-17T01:32:55.167Z,15.77
2019-02-17T01:35:25.748Z,16.60
2019-02-17T01:37:58.259Z,14.43
2019-02-17T01:40:28.532Z,15.57
2019-02-17T01:42:59.042Z,14.77
2019-02-17T01:45:29.518Z,15.57
2019-02-17T01:47:59.897Z,15.63
2019-02-17T01:50:30.357Z,15.97
2019-02-17T01:53:00.834Z,15.80
2019-02-17T01:55:31.284Z,15.48
2019-02-17T01:58:01.857Z,15.30
2019-02-17T02:00:32.521Z,15.10
2019-02-17T02:03:02.959Z,16.07
2019-02-17T02:05:33.424Z,14.23
2019-02-17T02:08:03.832Z,16.60
2019-02-17T02:10:34.320Z,14.63
2019-02-17T02:13:04.787Z,15.20
2019-02-17T02:15:35.267Z,15.67
2019-02-17T02:18:05.727Z,15.33
2019-02-17T02:20:36.236Z,15.67
2019-02-17T02:23:06.792Z,16.47
2019-02-17T02:25:37.482Z,15.30
2019-02-17T02:28:07.926Z,15.57
2019-02-17T02:30:38.355Z,15.20
2019-02-17T02:33:08.887Z,15.37
2019-02-17T02:35:39.393Z,15.30
2019-02-17T02:38:09.853Z,15.00
2019-02-17T02:40:40.308Z,15.10
2019-02-17T02:43:10.759Z,14.67
2019-02-17T02:45:41.279Z,14.87
2019-02-17T02:48:11.757Z,14.30
2019-02-17T02:50:42.188Z,16.53
2019-02-17T02:53:12.627Z,15.17
2019-02-17T02:55:43.053Z,14.87
2019-02-17T02:58:13.602Z,14.67
2019-02-17T03:00:44.036Z,13.60
2019-02-17T03:03:14.465Z,14.75
2019-02-17T03:06:03.816Z,14.93
2019-02-17T03:08:34.299Z,15.40
2019-02-17T03:11:04.763Z,14.87
2019-02-17T03:13:35.318Z,15.07
2019-02-17T03:16:05.801Z,14.10
2019-02-17T03:18:36.375Z,14.60
2019-02-17T03:21:06.729Z,15.60
2019-02-17T03:23:37.088Z,15.03
2019-02-17T03:26:07.591Z,13.90
2019-02-17T03:28:37.915Z,14.10
2019-02-17T03:31:08.345Z,15.37
2019-02-17T03:33:38.801Z,14.57
2019-02-17T03:36:09.166Z,13.73
2019-02-17T03:38:39.509Z,14.20
2019-02-17T03:41:10.052Z,14.33
2019-02-17T03:43:40.724Z,12.65
2019-02-17T03:46:11.248Z,13.22
2019-02-17T03:48:41.801Z,13.40
2019-02-17T03:51:12.560Z,12.87
2019-02-17T03:53:42.973Z,11.67
2019-02-17T03:56:13.343Z,13.37
2019-02-17T03:58:43.755Z,14.47
2019-02-17T04:01:14.204Z,12.37
2019-02-17T04:03:44.711Z,13.38
2019-02-17T04:06:15.173Z,13.67
2019-02-17T04:08:45.643Z,13.27
2019-02-17T04:11:16.046Z,13.43
2019-02-17T04:13:46.596Z,13.63
2019-02-17T04:16:17.060Z,14.33
2019-02-17T04:18:47.526Z,12.07
2019-02-17T04:21:18.031Z,12.73
2019-02-17T04:23:48.485Z,12.43
2019-02-17T04:26:18.869Z,12.93
2019-02-17T04:28:49.280Z,12.10
2019-02-17T04:31:19.855Z,13.28
2019-02-17T04:33:50.343Z,13.28
2019-02-17T04:36:20.831Z,12.85
2019-02-17T04:38:51.369Z,12.37
2019-02-17T04:41:21.812Z,13.40
2019-02-17T04:43:52.384Z,12.63
2019-02-17T04:46:22.731Z,12.13
2019-02-17T04:48:53.100Z,10.90
2019-02-17T04:51:23.656Z,11.50
2019-02-17T04:53:54.066Z,11.57
2019-02-17T04:56:24.505Z,11.40
2019-02-17T04:58:54.943Z,11.57
2019-02-17T05:01:25.416Z,11.63
2019-02-17T05:03:55.929Z,10.98
2019-02-17T05:06:26.371Z,12.23
2019-02-17T05:08:57.895Z,12.45
2019-02-17T05:11:28.291Z,11.15
2019-02-17T05:13:58.798Z,11.75
2019-02-17T05:16:29.224Z,11.22
2019-02-17T05:18:59.604Z,11.55
2019-02-17T05:21:29.986Z,12.35
2019-02-17T05:24:00.426Z,11.85
2019-02-17T05:26:30.876Z,11.83
2019-02-17T05:29:01.249Z,12.07
2019-02-17T05:31:31.664Z,11.75
2019-02-17T05:34:02.167Z,11.20
2019-02-17T05:36:32.544Z,11.00
2019-02-17T05:39:04.791Z,11.28
2019-02-17T05:41:35.315Z,10.80
2019-02-17T05:44:05.771Z,11.90
2019-02-17T05:46:36.255Z,10.40
2019-02-17T05:49:06.669Z,10.30
2019-02-17T05:51:37.197Z,10.78
2019-02-17T05:54:07.560Z,11.57
2019-02-17T05:56:38.068Z,12.00
2019-02-17T05:59:08.618Z,10.85
2019-02-17T06:01:39.127Z,10.85
2019-02-17T06:04:09.629Z,11.45
2019-02-17T06:06:40.235Z,10.90
2019-02-17T06:09:10.711Z,11.28
2019-02-17T06:11:41.030Z,10.88
2019-02-17T06:14:11.477Z,10.50
2019-02-17T06:16:41.981Z,11.65
2019-02-17T06:19:12.400Z,11.10
2019-02-17T06:21:42.906Z,10.85
2019-02-17T06:24:13.357Z,10.72
2019-02-17T06:26:43.786Z,9.95
2019-02-17T06:29:14.284Z,9.50
2019-02-17T06:31:44.825Z,10.85
2019-02-17T06:34:19.688Z,11.20
2019-02-17T06:36:50.181Z,10.38
2019-02-17T06:39:20.694Z,9.95
2019-02-17T06:41:51.152Z,10.48
2019-02-17T06:44:21.624Z,10.48
2019-02-17T06:46:56.375Z,9.70
2019-02-17T06:49:26.796Z,10.80
2019-02-17T06:51:57.133Z,10.43
2019-02-17T06:54:27.605Z,10.50
2019-02-17T06:57:05.135Z,10.28
2019-02-17T06:59:35.545Z,11.38
2019-02-17T07:02:05.970Z,10.25
2019-02-17T07:05:01.164Z,11.05
2019-02-17T07:07:31.811Z,9.88
2019-02-17T07:10:02.257Z,10.85
2019-02-17T07:12:32.729Z,9.78
2019-02-17T07:15:03.151Z,9.97
2019-02-17T07:17:33.664Z,9.78
2019-02-17T07:20:04.365Z,10.10
2019-02-17T07:22:34.733Z,9.43
2019-02-17T07:25:05.247Z,9.83
2019-02-17T07:27:35.602Z,9.78
2019-02-17T07:30:06.128Z,9.05
2019-02-17T07:32:36.513Z,10.37
2019-02-17T07:35:07.167Z,9.43
2019-02-17T07:37:37.656Z,10.30
2019-02-17T07:40:08.437Z,9.17
2019-02-17T07:42:38.829Z,9.73
2019-02-17T07:45:09.607Z,8.60
2019-02-17T07:47:40.024Z,10.73
2019-02-17T07:50:10.731Z,10.17
2019-02-17T07:52:41.122Z,11.40
2019-02-17T07:55:11.677Z,12.70
2019-02-17T07:57:42.107Z,12.03
2019-02-17T08:00:13.279Z,12.43
2019-02-17T08:02:43.718Z,12.27
2019-02-17T08:05:14.151Z,14.90
2019-02-17T08:07:44.715Z,14.00
2019-02-17T08:10:15.193Z,13.10
2019-02-17T08:12:45.644Z,13.20
2019-02-17T08:15:16.216Z,14.50
2019-02-17T08:17:46.665Z,12.70
2019-02-17T08:20:17.117Z,11.83
2019-02-17T08:22:47.464Z,9.97
2019-02-17T08:25:21.863Z,10.97
2019-02-17T08:27:50.237Z,8.73
2019-02-17T08:30:20.718Z,10.53
2019-02-17T08:32:51.024Z,9.03
2019-02-17T08:35:21.383Z,8.47
2019-02-17T08:37:51.898Z,8.13
2019-02-17T08:40:22.311Z,7.20
2019-02-17T08:42:52.727Z,6.97
2019-02-17T08:45:23.139Z,6.77
2019-02-17T08:47:53.608Z,5.53
2019-02-17T08:50:23.979Z,5.93
2019-02-17T08:52:54.414Z,5.67
2019-02-17T08:55:24.905Z,6.00
2019-02-17T08:57:55.398Z,5.30
2019-02-17T09:00:25.871Z,4.27
2019-02-17T09:02:56.221Z,3.40
2019-02-17T09:05:26.664Z,3.90
2019-02-17T09:07:57.119Z,3.70
2019-02-17T09:10:27.518Z,3.80
2019-02-17T09:12:57.949Z,3.77
2019-02-17T09:15:28.271Z,3.97
2019-02-17T09:17:58.575Z,4.40
2019-02-17T09:20:28.987Z,3.60
2019-02-17T09:22:59.425Z,3.67
2019-02-17T09:25:29.843Z,3.63
2019-02-17T09:28:00.408Z,4.10
2019-02-17T09:30:30.862Z,4.17
2019-02-17T09:33:01.296Z,3.97
2019-02-17T09:35:31.753Z,4.63
2019-02-17T09:38:02.194Z,4.00
2019-02-17T09:40:32.723Z,3.80
2019-02-17T09:43:03.149Z,4.40
2019-02-17T09:45:33.569Z,3.60
2019-02-17T09:48:03.993Z,4.20
2019-02-17T09:50:34.372Z,4.57
2019-02-17T09:53:04.796Z,3.73
2019-02-17T09:55:35.199Z,4.17
2019-02-17T09:58:05.685Z,3.87
2019-02-17T10:00:36.106Z,3.53
2019-02-17T10:03:06.533Z,4.30
2019-02-17T10:05:36.894Z,4.47
2019-02-17T10:08:07.350Z,4.50
2019-02-17T10:10:37.843Z,5.20
2019-02-17T10:13:08.238Z,5.10
2019-02-17T10:15:38.568Z,5.83
2019-02-17T10:18:08.901Z,5.83
2019-02-17T10:20:39.425Z,5.63
2019-02-17T10:23:09.817Z,6.30
2019-02-17T10:25:40.304Z,7.03
2019-02-17T10:28:10.789Z,7.27
2019-02-17T10:30:41.222Z,6.07
2019-02-17T10:33:11.635Z,6.27
2019-02-17T10:35:42.073Z,5.90
2019-02-17T10:38:12.578Z,5.23
2019-02-17T10:40:42.995Z,5.17
2019-02-17T10:43:13.428Z,5.23
2019-02-17T10:45:43.896Z,5.22
2019-02-17T10:48:14.323Z,4.53
2019-02-17T10:50:44.707Z,5.17
2019-02-17T10:53:15.165Z,4.37
2019-02-17T10:55:45.597Z,5.00
2019-02-17T10:58:16.084Z,5.03
2019-02-17T11:00:46.521Z,4.10
2019-02-17T11:03:16.931Z,4.03
2019-02-17T11:05:47.680Z,9.30
2019-02-17T11:08:18.111Z,6.13
2019-02-17T11:10:48.625Z,4.53
2019-02-17T11:13:19.033Z,4.30
2019-02-17T11:15:49.474Z,3.90
2019-02-17T11:18:19.776Z,3.80
2019-02-17T11:20:50.242Z,3.80
2019-02-17T11:23:21.184Z,3.70
2019-02-17T11:25:52.376Z,3.40
2019-02-17T11:28:22.801Z,3.27
2019-02-17T11:30:53.864Z,3.10
2019-02-17T11:33:24.295Z,2.93
2019-02-17T11:35:55.265Z,3.33
2019-02-17T11:38:26.098Z,3.47
2019-02-17T11:40:56.438Z,3.20
2019-02-17T11:43:27.246Z,3.47
2019-02-17T11:45:58.100Z,4.77
2019-02-17T11:48:28.588Z,2.97
2019-02-17T11:50:59.121Z,3.03
2019-02-17T11:53:29.630Z,3.03
2019-02-17T11:56:00.169Z,3.17
2019-02-17T11:58:30.600Z,2.70
2019-02-17T12:01:01.038Z,3.20
2019-02-17T12:03:31.498Z,2.90
2019-02-17T12:06:01.908Z,2.53
2019-02-17T12:08:32.403Z,2.60
2019-02-17T12:11:02.865Z,2.93
2019-02-17T12:13:33.223Z,2.83
2019-02-17T12:16:03.770Z,2.90
2019-02-17T12:18:34.095Z,3.23
2019-02-17T12:21:24.006Z,2.87
2019-02-17T12:24:11.580Z,2.50
2019-02-17T12:26:52.127Z,2.80
2019-02-17T12:29:33.029Z,2.57
2019-02-17T12:32:03.543Z,2.33
2019-02-17T12:34:34.016Z,3.10
2019-02-17T12:37:04.492Z,2.20
2019-02-17T12:39:34.966Z,2.33
2019-02-17T12:42:05.483Z,2.97
2019-02-17T12:44:35.970Z,3.63
2019-02-17T12:47:06.395Z,2.40
2019-02-17T12:49:36.736Z,2.53
2019-02-17T12:52:07.180Z,2.87
2019-02-17T12:54:37.569Z,2.40
2019-02-17T12:57:07.979Z,2.97
2019-02-17T12:59:38.698Z,3.07
2019-02-17T13:02:09.144Z,2.40
2019-02-17T13:04:39.606Z,2.67
2019-02-17T13:07:10.004Z,2.73
2019-02-17T13:09:40.480Z,3.93
2019-02-17T13:12:10.920Z,2.70
2019-02-17T13:14:41.436Z,2.40
2019-02-17T13:17:11.859Z,2.07
2019-02-17T13:19:42.303Z,1.93
2019-02-17T13:22:12.801Z,2.63
2019-02-17T13:24:43.142Z,2.70
2019-02-17T13:27:15.528Z,2.50
2019-02-17T13:29:45.521Z,2.80
2019-02-17T13:32:15.967Z,2.80
2019-02-17T13:34:46.654Z,2.80
2019-02-17T13:37:17.055Z,2.57
2019-02-17T13:39:47.441Z,2.57
2019-02-17T13:42:17.820Z,2.60
2019-02-17T13:44:48.291Z,3.23
2019-02-17T13:47:18.814Z,2.57
2019-02-17T13:49:49.280Z,2.90
2019-02-17T13:52:19.661Z,2.60
2019-02-17T13:54:50.078Z,2.50
2019-02-17T13:57:20.559Z,2.43
2019-02-17T13:59:50.986Z,2.20
2019-02-17T14:02:21.301Z,2.87
2019-02-17T14:04:51.743Z,2.50
2019-02-17T14:07:22.271Z,2.67
2019-02-17T14:09:52.737Z,2.70
2019-02-17T14:12:23.110Z,2.60
2019-02-17T14:14:53.469Z,2.73
2019-02-17T14:17:23.878Z,2.33
2019-02-17T14:19:54.345Z,3.03
2019-02-17T14:22:24.749Z,2.67
2019-02-17T14:24:55.253Z,2.27
2019-02-17T14:27:25.642Z,2.50
2019-02-17T14:29:55.985Z,2.70
2019-02-17T14:32:26.419Z,2.60
2019-02-17T14:34:56.719Z,3.00
2019-02-17T14:37:27.251Z,2.50
2019-02-17T14:39:57.695Z,2.70
2019-02-17T14:42:28.126Z,2.80
2019-02-17T14:44:58.437Z,2.63
2019-02-17T14:47:28.890Z,3.00
2019-02-17T14:49:59.254Z,2.90
2019-02-17T14:52:29.678Z,2.67
2019-02-17T14:55:00.050Z,2.90
2019-02-17T14:57:30.421Z,3.00
2019-02-17T15:00:00.874Z,3.30
2019-02-17T15:02:31.240Z,3.40
2019-02-17T15:05:01.714Z,3.70
2019-02-17T15:07:32.231Z,3.60
2019-02-17T15:10:02.600Z,4.17
2019-02-17T15:12:33.065Z,3.37
2019-02-17T15:15:03.532Z,3.40
2019-02-17T15:17:33.814Z,3.57
2019-02-17T15:20:04.559Z,23.90
2019-02-17T15:22:35.047Z,34.93
2019-02-17T15:25:07.406Z,29.73
2019-02-17T15:27:38.001Z,4.13
2019-02-17T15:30:11.164Z,3.80
2019-02-17T15:32:41.611Z,4.60
2019-02-17T15:35:12.050Z,10.90
2019-02-17T15:37:42.593Z,4.83
2019-02-17T15:40:13.354Z,4.73
2019-02-17T15:42:43.997Z,4.87
2019-02-17T15:45:14.834Z,5.00
2019-02-17T15:47:45.253Z,5.40
2019-02-17T15:50:16.065Z,5.30
2019-02-17T15:52:46.586Z,5.80
2019-02-17T15:55:17.062Z,4.73
2019-02-17T15:57:49.054Z,4.40
2019-02-17T16:00:19.679Z,5.30
2019-02-17T16:02:50.145Z,5.90
2019-02-17T16:05:20.652Z,5.93
2019-02-17T16:07:54.635Z,6.17
2019-02-17T16:10:27.393Z,5.43
2019-02-17T16:12:57.831Z,5.57
2019-02-17T16:15:28.174Z,11.67
2019-02-17T16:17:58.699Z,5.50
2019-02-17T16:20:29.134Z,5.73
2019-02-17T16:22:59.629Z,5.97
2019-02-17T16:25:30.168Z,6.07
2019-02-17T16:28:00.720Z,5.53
2019-02-17T16:30:31.216Z,5.57
2019-02-17T16:33:01.644Z,5.33
2019-02-17T16:35:32.124Z,5.83
2019-02-17T16:38:02.534Z,5.87
2019-02-17T16:40:33.107Z,5.87
2019-02-17T16:43:03.581Z,6.40
2019-02-17T16:45:34.137Z,9.53
2019-02-17T16:48:04.597Z,6.60
2019-02-17T16:50:35.042Z,9.87
2019-02-17T16:53:06.725Z,8.63
2019-02-17T16:55:37.172Z,7.70
2019-02-17T16:58:07.888Z,7.17
2019-02-17T17:00:38.925Z,6.37
2019-02-17T17:03:09.542Z,5.53
2019-02-17T17:05:40.169Z,6.57
2019-02-17T17:08:11.538Z,6.63
2019-02-17T17:10:42.071Z,7.33
2019-02-17T17:13:12.682Z,7.40
2019-02-17T17:15:43.189Z,7.93
2019-02-17T17:18:13.721Z,8.37
2019-02-17T17:20:45.264Z,8.93
2019-02-17T17:23:15.812Z,9.27
2019-02-17T17:25:46.249Z,9.07
2019-02-17T17:28:16.839Z,9.47
2019-02-17T17:30:48.217Z,9.17
2019-02-17T17:33:18.810Z,8.60
2019-02-17T17:35:49.436Z,9.30
2019-02-17T17:38:20.003Z,9.63
2019-02-17T17:40:50.452Z,9.80
2019-02-17T17:43:22.167Z,8.47
2019-02-17T17:45:53.116Z,8.30
2019-02-17T17:48:24.643Z,8.97
2019-02-17T17:50:55.360Z,8.07
2019-02-17T17:53:28.973Z,8.10
2019-02-17T17:55:59.440Z,8.10
2019-02-17T17:58:29.976Z,7.97
2019-02-17T18:01:00.506Z,7.97
2019-02-17T18:03:30.848Z,9.33
2019-02-17T18:06:01.565Z,8.20
2019-02-17T18:08:32.590Z,10.00
2019-02-17T18:11:03.242Z,9.87
2019-02-17T18:13:33.663Z,9.50
2019-02-17T18:16:04.091Z,9.67
2019-02-17T18:18:34.461Z,8.97
2019-02-17T18:21:04.898Z,9.40
2019-02-17T18:23:35.373Z,12.03
2019-02-17T18:26:05.805Z,12.17
2019-02-17T18:28:36.270Z,11.80
2019-02-17T18:31:06.683Z,12.70
2019-02-17T18:33:37.482Z,10.93
2019-02-17T18:36:07.885Z,11.27
2019-02-17T18:38:38.524Z,11.77
2019-02-17T18:41:09.001Z,11.10
2019-02-17T18:43:39.340Z,9.57
2019-02-17T18:46:09.911Z,8.20
2019-02-17T18:48:40.433Z,9.60
2019-02-17T18:51:11.097Z,10.77
2019-02-17T18:53:41.546Z,12.37
2019-02-17T18:56:12.074Z,14.07
2019-02-17T18:58:43.028Z,16.63
2019-02-17T19:01:13.663Z,15.90
2019-02-17T19:03:44.129Z,16.10
2019-02-17T19:06:14.554Z,14.30
2019-02-17T19:08:45.093Z,13.40
2019-02-17T19:11:18.631Z,12.20
2019-02-17T19:13:47.890Z,12.00
2019-02-17T19:16:19.970Z,11.60
2019-02-17T19:18:53.420Z,11.63
2019-02-17T19:21:24.216Z,9.60
2019-02-17T19:23:55.774Z,12.87
2019-02-17T19:26:26.273Z,15.73
2019-02-17T19:28:56.649Z,13.53
2019-02-17T19:31:38.881Z,15.90
2019-02-17T19:34:15.726Z,15.77
2019-02-17T19:36:46.232Z,16.30
2019-02-17T19:39:16.633Z,12.83
2019-02-17T19:41:47.119Z,18.03
2019-02-17T19:44:17.617Z,15.97
2019-02-17T19:46:49.877Z,15.47
2019-02-17T19:49:21.002Z,13.20
2019-02-17T19:51:52.128Z,13.97
2019-02-17T19:54:25.963Z,9.97
2019-02-17T19:57:00.943Z,9.93
2019-02-17T19:59:31.753Z,8.97
2019-02-17T20:02:03.726Z,9.70
2019-02-17T20:04:42.693Z,8.33
2019-02-17T20:07:16.541Z,9.63
2019-02-17T20:09:54.008Z,9.63
2019-02-17T20:12:27.963Z,10.00
2019-02-17T20:15:04.467Z,9.73
2019-02-17T20:17:40.863Z,10.23
2019-02-17T20:20:14.137Z,10.80
2019-02-17T20:22:47.319Z,9.50
2019-02-17T20:25:21.375Z,13.20
2019-02-17T20:27:53.055Z,11.13
2019-02-17T20:30:23.566Z,11.17
2019-02-17T20:32:53.876Z,11.57
2019-02-17T20:35:24.439Z,12.67
2019-02-17T20:37:54.856Z,11.73
2019-02-17T20:40:25.281Z,12.10
2019-02-17T20:42:55.706Z,9.93
2019-02-17T20:45:26.264Z,11.53
2019-02-17T20:47:56.729Z,10.90
2019-02-17T20:50:27.175Z,11.87
2019-02-17T20:52:57.704Z,13.10
2019-02-17T20:55:28.160Z,12.50
2019-02-17T20:57:58.778Z,11.43
2019-02-17T21:00:29.460Z,10.83
2019-02-17T21:02:59.870Z,10.87
2019-02-17T21:05:30.233Z,11.80
2019-02-17T21:08:00.699Z,12.10
2019-02-17T21:10:31.059Z,12.33
2019-02-17T21:13:01.357Z,13.60
2019-02-17T21:15:32.067Z,14.83
2019-02-17T21:18:02.499Z,12.30
2019-02-17T21:20:34.323Z,12.43
2019-02-17T21:23:04.964Z,10.83
2019-02-17T21:25:35.379Z,12.90
2019-02-17T21:28:07.312Z,10.33
2019-02-17T21:30:39.800Z,12.23
2019-02-17T21:33:11.899Z,12.80
2019-02-17T21:35:44.600Z,19.33
2019-02-17T21:38:17.156Z,27.43
2019-02-17T21:40:47.661Z,22.60
2019-02-17T21:43:18.130Z,15.17
2019-02-17T21:45:48.564Z,13.73
2019-02-17T21:48:18.947Z,11.73
2019-02-17T21:50:49.367Z,16.30
2019-02-17T21:53:20.781Z,14.07
2019-02-17T21:55:51.461Z,13.37
2019-02-17T21:58:21.808Z,24.77
2019-02-17T22:00:52.283Z,12.47
2019-02-17T22:03:22.863Z,10.30
2019-02-17T22:05:53.297Z,10.60
2019-02-17T22:08:23.765Z,11.33
2019-02-17T22:10:54.790Z,12.10
2019-02-17T22:13:25.222Z,9.90
2019-02-17T22:15:55.659Z,11.77
2019-02-17T22:18:26.299Z,14.00
2019-02-17T22:20:56.728Z,16.80
2019-02-17T22:23:27.157Z,19.13
2019-02-17T22:25:57.584Z,16.07
2019-02-17T22:28:28.256Z,14.33
2019-02-17T22:30:58.760Z,14.77
2019-02-17T22:33:29.187Z,14.60
2019-02-17T22:35:59.695Z,13.03
2019-02-17T22:38:30.192Z,11.53
2019-02-17T22:41:00.631Z,12.60
2019-02-17T22:43:31.051Z,13.73
2019-02-17T22:46:01.544Z,13.57
2019-02-17T22:48:32.009Z,13.40
2019-02-17T22:51:02.453Z,11.17
2019-02-17T22:53:43.075Z,12.67
2019-02-17T22:56:05.038Z,11.73
2019-02-17T22:58:35.595Z,12.00
2019-02-17T23:01:10.838Z,15.47
2019-02-17T23:03:41.308Z,12.33
2019-02-17T23:06:11.882Z,16.40
2019-02-17T23:08:42.395Z,14.70
2019-02-17T23:11:12.833Z,13.07
2019-02-17T23:13:43.337Z,16.07
2019-02-17T23:16:13.792Z,16.17
2019-02-17T23:18:44.678Z,18.10
2019-02-17T23:21:15.193Z,16.90
2019-02-17T23:23:45.521Z,19.77
2019-02-17T23:26:15.909Z,15.90
2019-02-17T23:28:46.573Z,14.53
2019-02-17T23:31:21.288Z,12.20
2019-02-17T23:33:51.604Z,12.90
2019-02-17T23:36:22.036Z,12.97
2019-02-17T23:38:52.531Z,12.70
2019-02-17T23:41:22.793Z,11.67
2019-02-17T23:43:53.196Z,13.40
2019-02-17T23:46:23.625Z,13.07
2019-02-17T23:48:54.057Z,11.80
2019-02-17T23:51:24.538Z,13.43
2019-02-17T23:53:54.973Z,11.47
2019-02-17T23:56:25.434Z,11.73
2019-02-17T23:58:55.853Z,10.77
